Time;durP1;ratioP1;P1;durP2;ratioP2;P2;SDS_P1;SDS_P2;PMS_P1;PMS_P2;Temp;Humidity;BMP_temperature;BMP_pressure;BME280_temperature;BME280_humidity;BME280_pressure;Samples;Min_cycle;Max_cycle;Signal;HPM_P1;HPM_P2
2022/09/04 00:00:10;;;;;;;3.67;2.90;;;16.50;99.90;;;;;;5073068;28;20596;-57
2022/09/04 00:03:01;;;;;;;3.63;2.90;;;16.50;99.90;;;;;;5072964;28;20248;-56
2022/09/04 00:05:34;;;;;;;5.13;2.90;;;16.50;99.90;;;;;;5073186;28;20229;-58
2022/09/04 00:08:27;;;;;;;3.00;2.70;;;16.50;99.90;;;;;;5072665;28;20205;-56
2022/09/04 00:10:59;;;;;;;2.90;2.60;;;16.50;99.90;;;;;;5072783;28;20629;-59
2022/09/04 00:13:31;;;;;;;3.00;2.77;;;16.50;99.90;;;;;;5072313;28;20660;-54
2022/09/04 00:16:05;;;;;;;4.50;2.70;;;16.50;99.90;;;;;;5073290;28;20247;-58
2022/09/04 00:18:37;;;;;;;6.30;2.70;;;16.50;99.90;;;;;;5073892;28;20205;-58
2022/09/04 00:21:11;;;;;;;2.93;2.70;;;16.50;99.90;;;;;;5073071;28;20577;-56
2022/09/04 00:23:43;;;;;;;3.20;2.90;;;16.40;99.90;;;;;;5072428;28;20262;-59
2022/09/04 00:26:19;;;;;;;2.73;2.53;;;16.40;99.90;;;;;;5072844;28;20224;-58
2022/09/04 00:28:49;;;;;;;3.87;2.80;;;16.40;99.90;;;;;;5072719;28;20212;-59
2022/09/04 00:31:24;;;;;;;4.43;3.40;;;16.40;99.90;;;;;;5072506;28;20220;-58
2022/09/04 00:34:00;;;;;;;6.13;3.67;;;16.40;99.90;;;;;;5072324;28;20235;-59
2022/09/04 00:36:29;;;;;;;4.33;3.60;;;16.40;99.90;;;;;;5072484;28;20208;-60
2022/09/04 00:39:02;;;;;;;4.57;3.67;;;16.30;99.90;;;;;;5071928;28;20209;-60
2022/09/04 00:41:32;;;;;;;5.37;3.80;;;16.20;99.90;;;;;;5072285;28;20265;-60
2022/09/04 00:44:17;;;;;;;3.97;3.20;;;16.20;99.90;;;;;;5072189;28;20272;-60
2022/09/04 00:47:02;;;;;;;3.50;3.20;;;16.20;99.90;;;;;;5072162;28;20205;-59
2022/09/04 00:49:58;;;;;;;3.60;3.30;;;16.20;99.90;;;;;;5072291;28;20671;-60
2022/09/04 00:52:53;;;;;;;3.47;3.00;;;16.10;99.90;;;;;;5070523;28;20284;-59
2022/09/04 00:55:40;;;;;;;3.70;3.30;;;16.10;99.90;;;;;;5072007;28;20233;-59
2022/09/04 00:58:23;;;;;;;3.47;2.90;;;16.10;99.90;;;;;;5072097;28;20209;-56
2022/09/04 01:00:52;;;;;;;5.03;2.80;;;16.00;99.90;;;;;;5072118;28;20672;-58
2022/09/04 01:03:29;;;;;;;3.97;2.87;;;16.00;99.90;;;;;;5072008;28;20204;-59
2022/09/04 01:06:12;;;;;;;3.27;2.97;;;16.00;99.90;;;;;;5071840;28;20214;-59
2022/09/04 01:09:00;;;;;;;3.83;3.43;;;16.10;99.90;;;;;;5071901;28;20213;-59
2022/09/04 01:11:38;;;;;;;3.93;3.13;;;16.00;99.90;;;;;;5071495;28;20224;-59
2022/09/04 01:14:12;;;;;;;3.53;3.23;;;16.10;99.90;;;;;;5071756;28;20229;-60
2022/09/04 01:16:46;;;;;;;3.27;2.97;;;16.10;99.90;;;;;;5071847;28;20254;-59
2022/09/04 01:19:28;;;;;;;4.77;3.00;;;16.10;99.90;;;;;;5071894;28;20269;-60
2022/09/04 01:22:20;;;;;;;3.33;3.03;;;16.10;99.90;;;;;;5071721;28;20205;-60
2022/09/04 01:25:02;;;;;;;3.67;3.33;;;16.10;99.90;;;;;;5071656;28;20224;-57
2022/09/04 01:27:34;;;;;;;3.13;2.83;;;16.10;99.90;;;;;;5071662;28;20211;-58
2022/09/04 01:30:06;;;;;;;4.47;3.10;;;16.10;99.90;;;;;;5071756;28;20209;-58
2022/09/04 01:32:44;;;;;;;3.53;3.10;;;16.10;99.90;;;;;;5072163;28;20205;-57
2022/09/04 01:35:21;;;;;;;3.27;2.97;;;16.10;99.90;;;;;;5071588;28;20270;-56
2022/09/04 01:37:57;;;;;;;3.43;3.13;;;16.10;99.90;;;;;;5071695;28;20246;-58
2022/09/04 01:40:33;;;;;;;4.50;3.40;;;16.10;99.90;;;;;;5071725;28;20201;-57
2022/09/04 01:43:06;;;;;;;5.20;3.20;;;16.10;99.90;;;;;;5071774;28;20204;-58
2022/09/04 01:45:45;;;;;;;3.40;3.10;;;16.10;99.90;;;;;;5071852;28;20228;-58
2022/09/04 01:48:16;;;;;;;3.13;2.83;;;16.10;99.90;;;;;;5071341;28;20207;-58
2022/09/04 01:50:47;;;;;;;4.23;3.43;;;16.10;99.90;;;;;;5072382;28;20228;-58
2022/09/04 01:53:21;;;;;;;5.30;3.57;;;16.10;99.90;;;;;;5075363;28;20254;-58
2022/09/04 01:55:57;;;;;;;3.50;3.20;;;16.10;99.90;;;;;;5075568;28;20236;-58
2022/09/04 01:58:34;;;;;;;3.30;3.00;;;16.10;99.90;;;;;;5075530;28;20262;-58
2022/09/04 02:01:10;;;;;;;3.83;3.13;;;16.10;99.90;;;;;;5075549;28;20571;-58
2022/09/04 02:03:46;;;;;;;3.53;3.20;;;16.10;99.90;;;;;;5074586;28;20572;-58
2022/09/04 02:06:21;;;;;;;4.20;3.60;;;16.00;99.90;;;;;;5074903;28;20208;-56
2022/09/04 02:09:08;;;;;;;5.07;3.17;;;16.00;99.90;;;;;;5075438;28;20204;-59
2022/09/04 02:11:35;;;;;;;3.63;3.07;;;16.00;99.90;;;;;;5075218;28;20267;-58
2022/09/04 02:14:16;;;;;;;3.77;3.40;;;16.00;99.90;;;;;;5074884;28;20228;-58
2022/09/04 02:16:55;;;;;;;3.93;3.30;;;16.00;99.90;;;;;;5074997;28;20201;-58
2022/09/04 02:19:34;;;;;;;3.93;3.57;;;16.00;99.90;;;;;;5075077;28;20224;-58
2022/09/04 02:22:07;;;;;;;3.03;2.73;;;16.10;99.90;;;;;;5075066;28;20250;-57
2022/09/04 02:24:41;;;;;;;3.90;3.57;;;16.00;99.90;;;;;;5075000;28;20294;-59
2022/09/04 02:27:16;;;;;;;4.83;3.13;;;16.00;99.90;;;;;;5074868;28;20236;-58
2022/09/04 02:29:52;;;;;;;3.87;3.07;;;16.00;99.90;;;;;;5074978;28;20214;-59
2022/09/04 02:32:24;;;;;;;4.83;3.30;;;16.00;99.90;;;;;;5074562;28;20208;-57
2022/09/04 02:34:58;;;;;;;4.57;3.33;;;15.90;99.90;;;;;;5074547;28;20233;-60
2022/09/04 02:37:32;;;;;;;3.83;3.40;;;15.80;99.90;;;;;;5074478;28;20205;-60
2022/09/04 02:40:10;;;;;;;3.40;3.10;;;15.80;99.90;;;;;;5074771;28;20560;-59
2022/09/04 02:42:45;;;;;;;4.10;3.57;;;15.80;99.90;;;;;;5074203;28;20937;-60
2022/09/04 02:45:22;;;;;;;5.63;3.50;;;15.80;99.90;;;;;;5074445;28;20220;-59
2022/09/04 02:47:55;;;;;;;4.60;3.40;;;15.80;99.90;;;;;;5074531;28;20657;-60
2022/09/04 02:50:38;;;;;;;4.43;3.53;;;15.70;99.90;;;;;;5074531;28;20205;-59
2022/09/04 02:53:16;;;;;;;4.33;3.43;;;15.70;99.90;;;;;;5074834;28;20203;-60
2022/09/04 02:55:56;;;;;;;3.90;3.47;;;15.70;99.90;;;;;;5074047;28;20718;-59
2022/09/04 02:58:32;;;;;;;3.70;3.30;;;15.70;99.90;;;;;;5074531;28;20208;-60
2022/09/04 03:01:09;;;;;;;5.20;3.60;;;15.70;99.90;;;;;;5074566;28;20204;-58
2022/09/04 03:03:43;;;;;;;3.73;3.43;;;15.70;99.90;;;;;;5073493;28;20278;-60
2022/09/04 03:06:12;;;;;;;5.23;3.40;;;15.60;99.90;;;;;;5074179;28;20209;-59
2022/09/04 03:08:44;;;;;;;4.10;3.60;;;15.60;99.90;;;;;;5073495;28;20209;-59
2022/09/04 03:11:16;;;;;;;4.97;3.33;;;15.60;99.90;;;;;;5074145;28;20228;-59
2022/09/04 03:13:49;;;;;;;3.93;3.50;;;15.50;99.90;;;;;;5073947;28;20225;-60
2022/09/04 03:16:24;;;;;;;6.70;3.67;;;15.50;1.00;;;;;;5073793;28;20205;-59
2022/09/04 03:19:03;;;;;;;5.00;3.40;;;15.50;1.00;;;;;;5074260;28;20266;-60
2022/09/04 03:21:38;;;;;;;8.50;3.43;;;15.50;1.00;;;;;;5074097;28;20201;-60
2022/09/04 03:24:11;;;;;;;4.10;3.20;;;15.50;1.00;;;;;;5073923;28;20264;-58
2022/09/04 03:26:41;;;;;;;4.57;3.67;;;15.50;1.00;;;;;;5074027;28;20190;-57
2022/09/04 03:29:20;;;;;;;5.10;3.20;;;15.50;1.00;;;;;;5074274;28;20608;-59
2022/09/04 03:31:53;;;;;;;5.27;3.30;;;15.40;1.00;;;;;;5073915;28;20221;-59
2022/09/04 03:34:28;;;;;;;5.03;3.90;;;15.30;1.00;;;;;;5073574;28;20714;-59
2022/09/04 03:37:09;;;;;;;4.33;3.70;;;15.30;1.00;;;;;;5073730;28;20334;-59
2022/09/04 03:39:45;;;;;;;4.93;3.70;;;15.30;1.00;;;;;;5073472;28;20209;-58
2022/09/04 03:42:20;;;;;;;6.37;3.97;;;15.30;1.00;;;;;;5074903;28;20574;-58
2022/09/04 03:44:58;;;;;;;4.40;4.00;;;15.30;1.00;;;;;;5076866;28;20282;-58
2022/09/04 03:47:33;;;;;;;4.70;4.20;;;15.20;1.00;;;;;;5076687;28;20205;-59
2022/09/04 03:50:10;;;;;;;4.27;3.60;;;15.20;1.00;;;;;;5076662;28;20247;-58
2022/09/04 03:52:44;;;;;;;5.77;3.97;;;15.20;1.00;;;;;;5073735;28;20229;-59
2022/09/04 03:55:35;;;;;;;4.07;3.67;;;15.20;1.00;;;;;;5073249;28;20236;-56
2022/09/04 03:58:13;;;;;;;5.23;3.53;;;15.20;1.00;;;;;;5072995;28;20201;-59
2022/09/04 04:00:47;;;;;;;7.90;4.43;;;15.20;1.00;;;;;;5073483;28;20353;-59
2022/09/04 04:03:36;;;;;;;4.33;3.93;;;15.20;1.00;;;;;;5073097;28;20678;-57
2022/09/04 04:06:15;;;;;;;8.07;4.03;;;15.20;1.00;;;;;;5072814;28;20644;-59
2022/09/04 04:09:10;;;;;;;4.83;4.13;;;15.20;1.00;;;;;;5072979;28;20262;-58
2022/09/04 04:12:12;;;;;;;5.67;4.20;;;15.20;1.00;;;;;;5072365;28;20618;-59
2022/09/04 04:15:03;;;;;;;4.20;3.80;;;15.10;1.00;;;;;;5071751;28;20287;-58
2022/09/04 04:17:48;;;;;;;5.63;3.93;;;15.10;1.00;;;;;;5072881;28;20208;-59
2022/09/04 04:20:29;;;;;;;5.23;4.73;;;15.10;1.00;;;;;;5072765;28;20285;-59
2022/09/04 04:23:16;;;;;;;4.67;4.27;;;15.10;11.70;;;;;;5072736;28;20197;-59
2022/09/04 04:25:59;;;;;;;4.47;4.07;;;15.00;26.70;;;;;;5072851;28;20228;-59
2022/09/04 04:28:58;;;;;;;5.13;4.63;;;15.00;43.40;;;;;;5072700;28;20205;-57
2022/09/04 04:31:38;;;;;;;4.60;4.20;;;15.00;82.00;;;;;;5072356;28;20225;-58
2022/09/04 04:34:10;;;;;;;5.40;4.30;;;15.00;91.20;;;;;;5072802;28;20240;-57
2022/09/04 04:36:47;;;;;;;6.93;4.57;;;15.00;94.00;;;;;;5072309;28;20201;-58
2022/09/04 04:39:23;;;;;;;4.60;4.20;;;15.00;97.60;;;;;;5072532;28;20213;-58
2022/09/04 04:42:06;;;;;;;4.60;4.03;;;15.10;98.70;;;;;;5072436;28;20205;-58
2022/09/04 04:48:27;;;;;;;5.63;4.40;;;15.10;93.70;;;;;;5072066;28;20257;-57
2022/09/04 04:51:04;;;;;;;7.23;4.17;;;15.10;97.30;;;;;;5072411;28;20213;-56
2022/09/04 04:53:40;;;;;;;6.63;4.53;;;15.10;99.90;;;;;;5072118;28;20209;-57
2022/09/04 04:56:13;;;;;;;6.60;4.47;;;15.00;99.90;;;;;;5071940;28;20208;-57
2022/09/04 04:58:50;;;;;;;6.57;4.63;;;15.00;99.90;;;;;;5072287;28;20667;-58
2022/09/04 05:01:28;;;;;;;4.67;4.07;;;15.10;99.90;;;;;;5072282;28;20208;-58
2022/09/04 05:04:08;;;;;;;4.63;3.93;;;15.10;99.90;;;;;;5072310;28;20260;-58
2022/09/04 05:06:39;;;;;;;5.97;4.57;;;15.10;99.90;;;;;;5071705;28;20601;-58
2022/09/04 05:09:16;;;;;;;5.80;4.40;;;15.10;99.90;;;;;;5072150;28;20196;-58
2022/09/04 05:11:52;;;;;;;4.93;4.40;;;15.10;99.90;;;;;;5071984;28;20298;-58
2022/09/04 05:14:29;;;;;;;7.80;4.50;;;15.10;99.90;;;;;;5071945;28;20220;-57
2022/09/04 05:17:04;;;;;;;4.70;4.30;;;15.20;99.90;;;;;;5071806;28;20200;-59
2022/09/04 05:19:40;;;;;;;4.97;4.47;;;15.20;99.90;;;;;;5071725;28;20208;-59
2022/09/04 05:22:17;;;;;;;5.23;4.00;;;15.20;99.90;;;;;;5071995;28;20201;-59
2022/09/04 05:24:54;;;;;;;6.40;4.57;;;15.20;99.90;;;;;;5071915;28;20259;-60
2022/09/04 05:27:45;;;;;;;4.80;4.30;;;15.30;99.90;;;;;;5071302;28;20208;-60
2022/09/04 05:30:16;;;;;;;5.07;4.27;;;15.40;99.90;;;;;;5072079;28;20658;-59
2022/09/04 05:32:53;;;;;;;5.67;4.40;;;15.40;99.90;;;;;;5071807;28;20641;-59
2022/09/04 05:35:26;;;;;;;7.53;4.27;;;15.40;99.90;;;;;;5071835;28;20232;-60
2022/09/04 05:37:58;;;;;;;4.63;4.23;;;15.50;99.90;;;;;;5071700;28;20259;-59
2022/09/04 05:40:32;;;;;;;5.33;4.53;;;15.60;99.90;;;;;;5072235;28;20266;-59
2022/09/04 05:43:19;;;;;;;4.83;4.40;;;15.60;99.90;;;;;;5071958;28;20550;-60
2022/09/04 05:45:53;;;;;;;4.93;4.50;;;15.60;99.90;;;;;;5071358;28;20772;-58
2022/09/04 05:48:25;;;;;;;4.20;3.80;;;15.70;99.90;;;;;;5071968;28;20192;-59
2022/09/04 05:51:07;;;;;;;4.30;3.73;;;15.70;99.90;;;;;;5071783;28;20193;-57
2022/09/04 05:54:06;;;;;;;5.33;3.77;;;15.80;99.90;;;;;;5071636;28;20631;-57
2022/09/04 05:56:59;;;;;;;5.07;4.17;;;15.90;99.90;;;;;;5054454;28;20254;-58
2022/09/04 05:59:42;;;;;;;4.37;3.97;;;16.00;99.90;;;;;;5071719;28;20208;-59
2022/09/04 06:02:27;;;;;;;5.17;3.83;;;16.00;99.90;;;;;;5071515;28;20213;-58
2022/09/04 06:05:09;;;;;;;6.23;3.90;;;16.10;98.10;;;;;;5071455;28;20225;-59
2022/09/04 06:07:42;;;;;;;8.07;3.83;;;16.20;94.10;;;;;;5071566;28;20201;-58
2022/09/04 06:10:17;;;;;;;6.47;3.90;;;16.20;76.80;;;;;;5071669;28;20209;-58
2022/09/04 06:13:25;;;;;;;3.80;3.50;;;16.30;54.00;;;;;;5071264;28;20740;-58
2022/09/04 06:16:11;;;;;;;7.53;3.50;;;16.40;42.70;;;;;;4989665;28;20687;-58
2022/09/04 06:18:56;;;;;;;3.50;3.20;;;16.50;34.10;;;;;;4989839;28;20302;-59
2022/09/04 06:21:57;;;;;;;4.80;3.43;;;16.60;20.80;;;;;;5051175;28;20220;-59
2022/09/04 06:24:45;;;;;;;5.30;3.90;;;16.60;15.50;;;;;;5067908;28;20232;-60
2022/09/04 06:27:24;;;;;;;4.23;3.43;;;16.70;10.50;;;;;;5063750;28;20205;-60
2022/09/04 06:30:06;;;;;;;4.00;3.60;;;16.70;3.50;;;;;;5069558;28;20725;-62
2022/09/04 06:32:53;;;;;;;5.03;3.10;;;16.80;1.00;;;;;;5070632;28;20225;-58
2022/09/04 06:35:46;;;;;;;3.57;3.03;;;16.90;1.00;;;;;;5070894;28;20243;-62
2022/09/04 06:38:36;;;;;;;3.43;3.13;;;17.00;1.00;;;;;;5072240;28;20270;-61
2022/09/04 06:41:18;;;;;;;3.83;3.43;;;17.00;1.00;;;;;;5074473;28;20255;-62
2022/09/04 06:43:54;;;;;;;4.33;3.83;;;17.10;1.00;;;;;;5074492;28;20221;-63
2022/09/04 06:46:28;;;;;;;3.90;3.33;;;17.20;1.00;;;;;;5074027;28;20262;-64
2022/09/04 06:49:06;;;;;;;3.83;3.27;;;17.30;1.00;;;;;;5073960;28;20204;-55
2022/09/04 06:51:47;;;;;;;4.07;3.07;;;17.30;1.00;;;;;;5074481;28;20208;-57
2022/09/04 06:54:22;;;;;;;4.10;3.00;;;17.40;1.00;;;;;;5074039;28;20319;-61
2022/09/04 06:57:00;;;;;;;2.90;2.63;;;17.50;1.00;;;;;;5073968;28;20200;-60
2022/09/04 06:59:44;;;;;;;3.53;3.10;;;17.60;1.00;;;;;;5073705;28;20282;-58
2022/09/04 07:02:22;;;;;;;4.97;2.90;;;17.70;1.00;;;;;;5074583;28;20266;-59
2022/09/04 07:05:02;;;;;;;3.87;3.00;;;17.70;1.00;;;;;;5074231;28;20768;-59
2022/09/04 07:07:38;;;;;;;3.53;2.73;;;17.80;1.00;;;;;;5074214;28;20636;-57
2022/09/04 07:10:10;;;;;;;4.37;2.97;;;17.90;1.00;;;;;;5074168;28;20208;-55
2022/09/04 07:13:04;;;;;;;3.80;3.27;;;18.00;1.00;;;;;;5074704;28;20225;-63
2022/09/04 07:16:00;;;;;;;4.10;2.80;;;18.10;1.00;;;;;;5075249;28;20229;-61
2022/09/04 07:18:46;;;;;;;4.40;2.43;;;18.30;1.00;;;;;;5076531;28;20345;-60
2022/09/04 07:21:18;;;;;;;3.43;2.90;;;18.40;1.00;;;;;;5074790;28;20209;-54
2022/09/04 07:23:52;;;;;;;3.47;2.53;;;18.50;1.00;;;;;;5074245;28;20221;-56
2022/09/04 07:26:27;;;;;;;4.37;3.10;;;18.60;1.00;;;;;;5074159;28;20562;-57
2022/09/04 07:29:15;;;;;;;4.07;2.97;;;18.70;1.00;;;;;;5074227;28;20205;-57
2022/09/04 07:31:47;;;;;;;4.00;3.10;;;18.80;1.00;;;;;;5073679;28;20697;-58
2022/09/04 07:34:22;;;;;;;4.33;3.07;;;19.00;99.90;;;;;;5073887;28;20229;-55
2022/09/04 07:36:55;;;;;;;4.33;2.70;;;19.10;99.90;;;;;;5073518;28;20731;-65
2022/09/04 07:39:28;;;;;;;3.90;2.83;;;19.20;99.90;;;;;;5073709;28;20663;-59
2022/09/04 07:42:04;;;;;;;5.27;2.87;;;19.30;99.90;;;;;;5073660;28;20762;-58
2022/09/04 07:44:39;;;;;;;3.33;2.67;;;19.40;99.90;;;;;;5073744;28;20240;-58
2022/09/04 07:47:13;;;;;;;2.47;2.27;;;19.60;99.90;;;;;;5073261;28;20200;-59
2022/09/04 07:49:53;;;;;;;4.07;2.60;;;19.70;99.90;;;;;;5073540;28;20498;-60
2022/09/04 07:52:49;;;;;;;5.80;2.30;;;19.90;99.90;;;;;;5073335;28;20303;-58
2022/09/04 07:55:30;;;;;;;2.97;2.67;;;20.00;1.00;;;;;;5067041;28;20239;-57
2022/09/04 07:58:10;;;;;;;2.97;2.33;;;20.10;99.90;;;;;;5073071;28;20206;-58
2022/09/04 08:00:43;;;;;;;3.33;2.53;;;20.30;99.90;;;;;;5073330;28;20254;-58
2022/09/04 08:03:28;;;;;;;2.37;2.13;;;20.40;99.90;;;;;;5073334;28;20205;-58
2022/09/04 08:06:03;;;;;;;3.07;2.50;;;20.50;99.90;;;;;;5072960;28;20216;-59
2022/09/04 08:08:55;;;;;;;2.67;2.07;;;20.60;99.90;;;;;;5073342;28;20261;-59
2022/09/04 08:11:59;;;;;;;6.53;2.47;;;20.80;99.90;;;;;;5073103;28;20266;-59
2022/09/04 08:14:37;;;;;;;5.00;2.33;;;20.90;1.00;;;;;;5064089;28;20236;-58
2022/09/04 08:17:32;;;;;;;3.13;2.33;;;21.00;1.00;;;;;;5072813;28;20193;-58
2022/09/04 08:20:05;;;;;;;3.33;2.30;;;21.00;99.90;;;;;;5072781;28;20205;-59
2022/09/04 08:22:45;;;;;;;3.83;2.70;;;21.10;1.00;;;;;;5072590;28;20201;-61
2022/09/04 08:25:20;;;;;;;3.00;2.50;;;21.30;22.90;;;;;;5073012;28;20228;-58
2022/09/04 08:28:00;;;;;;;6.30;2.80;;;21.40;1.00;;;;;;5072855;28;20212;-60
2022/09/04 08:30:34;;;;;;;2.90;2.00;;;21.50;1.00;;;;;;5072628;28;20258;-57
2022/09/04 08:33:23;;;;;;;5.90;2.63;;;21.70;99.90;;;;;;5072793;28;20225;-56
2022/09/04 08:35:57;;;;;;;2.40;2.20;;;21.70;99.90;;;;;;5072733;28;20205;-55
2022/09/04 08:38:41;;;;;;;2.70;2.33;;;21.90;68.50;;;;;;5072327;28;20209;-58
2022/09/04 08:41:55;;;;;;;3.13;2.17;;;22.00;1.00;;;;;;5072550;28;20250;-65
2022/09/04 08:44:55;;;;;;;2.33;2.10;;;22.20;1.00;;;;;;5072416;28;20217;-58
2022/09/04 08:47:54;;;;;;;3.50;2.83;;;22.40;1.00;;;;;;5072223;28;20571;-58
2022/09/04 08:50:42;;;;;;;3.07;2.00;;;22.50;99.90;;;;;;5038221;28;20216;-59
2022/09/04 08:53:36;;;;;;;3.57;2.40;;;22.60;62.70;;;;;;5072312;28;20217;-61
2022/09/04 08:56:19;;;;;;;2.97;2.10;;;22.80;99.90;;;;;;5072025;28;20752;-59
2022/09/04 08:59:29;;;;;;;2.53;2.17;;;22.80;1.00;;;;;;5072354;28;20208;-58
2022/09/04 09:02:35;;;;;;;4.10;2.70;;;22.90;1.00;;;;;;5071458;28;20257;-58
2022/09/04 09:05:32;;;;;;;2.83;2.40;;;23.10;99.90;;;;;;5072412;28;20283;-59
2022/09/04 09:08:47;;;;;;;3.57;2.47;;;23.10;99.90;;;;;;5072013;28;20259;-59
2022/09/04 09:11:50;;;;;;;2.90;2.33;;;23.00;99.90;;;;;;5072385;28;20209;-59
2022/09/04 09:14:42;;;;;;;2.60;2.30;;;23.00;99.90;;;;;;5041618;28;20236;-59
2022/09/04 09:17:15;;;;;;;2.90;2.20;;;23.10;99.90;;;;;;5072083;28;20205;-57
2022/09/04 09:19:45;;;;;;;3.50;2.50;;;23.20;99.90;;;;;;5072199;28;20266;-58
2022/09/04 09:22:32;;;;;;;5.80;2.60;;;23.30;99.90;;;;;;5071971;28;20219;-59
2022/09/04 09:25:29;;;;;;;2.90;2.40;;;23.40;99.90;;;;;;5071990;28;20259;-58
2022/09/04 09:28:45;;;;;;;3.30;2.50;;;23.50;99.90;;;;;;5071713;28;20205;-58
2022/09/04 09:31:50;;;;;;;2.60;2.27;;;23.60;99.90;;;;;;5071967;28;20254;-57
2022/09/04 09:34:57;;;;;;;2.80;2.37;;;23.50;99.90;;;;;;5016982;28;20228;-57
2022/09/04 09:37:47;;;;;;;2.97;2.67;;;23.70;99.90;;;;;;5071768;28;20208;-60
2022/09/04 09:40:40;;;;;;;2.87;1.90;;;23.80;99.90;;;;;;5072015;28;20262;-57
2022/09/04 09:43:40;;;;;;;2.83;2.27;;;24.00;99.90;;;;;;5071745;28;20226;-53
2022/09/04 09:46:50;;;;;;;4.40;3.10;;;24.00;99.90;;;;;;5071220;28;20209;-57
2022/09/04 09:49:54;;;;;;;2.77;2.47;;;24.00;99.90;;;;;;5071942;28;20211;-57
2022/09/04 09:52:44;;;;;;;2.77;2.57;;;23.60;99.90;;;;;;5064728;28;20205;-57
2022/09/04 09:55:44;;;;;;;3.50;2.40;;;23.50;99.90;;;;;;5070970;28;20274;-55
2022/09/04 09:58:50;;;;;;;2.60;2.27;;;23.80;99.90;;;;;;5070817;28;20254;-58
2022/09/04 10:01:32;;;;;;;3.03;1.83;;;24.00;99.90;;;;;;5042121;28;20250;-58
2022/09/04 10:04:38;;;;;;;2.37;2.17;;;24.20;99.90;;;;;;5070925;28;20271;-60
2022/09/04 10:07:50;;;;;;;2.43;2.13;;;24.20;99.90;;;;;;5070541;28;20287;-56
2022/09/04 10:10:48;;;;;;;3.43;2.50;;;24.40;99.90;;;;;;5033809;28;20658;-59
2022/09/04 10:13:47;;;;;;;2.90;2.70;;;24.70;99.90;;;;;;5073682;28;20661;-59
2022/09/04 10:16:35;;;;;;;2.60;2.30;;;24.70;99.90;;;;;;5074837;28;20205;-59
2022/09/04 10:19:27;;;;;;;3.70;2.53;;;24.90;99.90;;;;;;5074954;28;20668;-62
2022/09/04 10:22:30;;;;;;;4.27;2.53;;;24.90;99.90;;;;;;5074974;28;20326;-63
2022/09/04 10:25:20;;;;;;;4.07;2.83;;;25.10;99.90;;;;;;5074746;28;20370;-62
2022/09/04 10:28:24;;;;;;;3.43;2.47;;;25.20;99.90;;;;;;5074242;28;20228;-62
2022/09/04 10:31:18;;;;;;;3.10;2.27;;;25.20;99.90;;;;;;5068059;28;20212;-61
2022/09/04 10:34:10;;;;;;;2.07;1.93;;;25.20;99.90;;;;;;5074048;28;20247;-65
2022/09/04 10:36:48;;;;;;;2.20;1.90;;;25.40;99.90;;;;;;5074788;28;20209;-65
2022/09/04 10:42:19;;;;;;;2.77;2.20;;;25.30;99.90;;;;;;5074583;28;20196;-65
2022/09/04 10:45:16;;;;;;;4.30;2.47;;;24.90;99.90;;;;;;5074032;28;20225;-62
2022/09/04 10:48:21;;;;;;;4.50;2.17;;;24.60;99.90;;;;;;5067766;28;20625;-62
2022/09/04 10:51:19;;;;;;;3.47;2.17;;;24.70;99.90;;;;;;5078056;28;20219;-63
2022/09/04 10:54:04;;;;;;;4.43;2.17;;;24.70;99.90;;;;;;5079182;28;20259;-64
2022/09/04 10:56:40;;;;;;;3.70;2.30;;;24.80;99.90;;;;;;5075824;28;20208;-64
2022/09/04 10:59:32;;;;;;;2.90;2.10;;;24.80;99.90;;;;;;5073784;28;20205;-64
2022/09/04 11:02:41;;;;;;;2.53;2.33;;;24.70;99.90;;;;;;5074193;28;20243;-64
2022/09/04 11:05:38;;;;;;;3.17;2.20;;;24.60;99.90;;;;;;5073674;28;20225;-64
2022/09/04 11:08:37;;;;;;;2.77;2.00;;;24.70;99.90;;;;;;5073404;28;20205;-66
2022/09/04 11:11:28;;;;;;;4.07;2.27;;;24.80;99.90;;;;;;5073809;28;20205;-65
2022/09/04 11:14:08;;;;;;;3.27;2.40;;;24.80;99.90;;;;;;5073686;28;20283;-65
2022/09/04 11:17:13;;;;;;;3.77;2.13;;;24.90;99.90;;;;;;5073515;28;20715;-64
2022/09/04 11:20:15;;;;;;;2.43;2.00;;;25.10;99.90;;;;;;5049977;28;20614;-64
2022/09/04 11:23:23;;;;;;;3.37;2.30;;;25.40;99.90;;;;;;5004921;28;20604;-64
2022/09/04 11:26:38;;;;;;;75.00;48.57;;;25.50;99.90;;;;;;5073267;28;20224;-65
2022/09/04 11:29:20;;;;;;;2.87;2.37;;;25.60;99.90;;;;;;5073771;28;20235;-64
2022/09/04 11:32:02;;;;;;;2.07;1.80;;;25.50;99.90;;;;;;5073356;28;20205;-64
2022/09/04 11:35:08;;;;;;;2.67;1.70;;;25.70;99.90;;;;;;5073060;28;20290;-64
2022/09/04 11:37:59;;;;;;;4.37;2.20;;;26.00;99.90;;;;;;5072995;28;20209;-64
2022/09/04 11:41:07;;;;;;;2.67;2.10;;;26.20;99.90;;;;;;5073292;28;20201;-64
2022/09/04 11:44:00;;;;;;;2.10;1.90;;;26.20;99.90;;;;;;5072861;28;20201;-64
2022/09/04 11:47:02;;;;;;;4.83;1.87;;;25.90;99.90;;;;;;5073927;28;20213;-64
2022/09/04 11:49:51;;;;;;;2.07;1.73;;;25.70;99.90;;;;;;5074192;28;20248;-64
2022/09/04 11:52:34;;;;;;;5.10;1.80;;;25.80;99.90;;;;;;5072943;28;20209;-64
2022/09/04 11:55:24;;;;;;;4.60;1.87;;;25.90;99.90;;;;;;5073748;28;20661;-64
2022/09/04 11:58:07;;;;;;;3.10;2.00;;;25.50;99.90;;;;;;5073473;28;20205;-64
2022/09/04 12:00:42;;;;;;;3.07;1.90;;;25.50;99.90;;;;;;5073881;28;20201;-64
2022/09/04 12:03:40;;;;;;;2.50;1.70;;;25.40;99.90;;;;;;5073516;28;20212;-64
2022/09/04 12:06:33;;;;;;;2.70;1.73;;;25.40;99.90;;;;;;5072844;28;20246;-64
2022/09/04 12:09:24;;;;;;;2.73;1.60;;;25.60;99.90;;;;;;5073213;28;20219;-64
2022/09/04 12:12:11;;;;;;;2.47;1.90;;;26.10;99.90;;;;;;5073104;28;20577;-64
2022/09/04 12:14:59;;;;;;;2.33;1.93;;;26.40;99.90;;;;;;5072746;28;20229;-64
2022/09/04 12:17:55;;;;;;;2.23;1.97;;;26.70;99.90;;;;;;5073073;28;20292;-65
2022/09/04 12:20:57;;;;;;;5.20;1.70;;;26.90;99.90;;;;;;5073311;28;20237;-62
2022/09/04 12:23:33;;;;;;;3.47;2.37;;;26.90;99.90;;;;;;5041435;28;20208;-63
2022/09/04 12:26:43;;;;;;;3.80;1.83;;;26.90;99.90;;;;;;5073335;28;20584;-63
2022/09/04 12:29:38;;;;;;;4.13;2.17;;;27.10;99.90;;;;;;5073312;28;20209;-63
2022/09/04 12:32:30;;;;;;;2.57;1.80;;;27.10;99.90;;;;;;5073065;28;20209;-63
2022/09/04 12:35:43;;;;;;;2.23;1.90;;;27.10;99.90;;;;;;5071506;28;20826;-62
2022/09/04 12:38:34;;;;;;;2.83;2.23;;;27.30;99.90;;;;;;5072558;28;20675;-64
2022/09/04 12:41:08;;;;;;;3.40;2.20;;;27.00;99.90;;;;;;5072264;28;20205;-63
2022/09/04 12:43:50;;;;;;;4.47;2.60;;;26.70;99.90;;;;;;5072112;28;20564;-63
2022/09/04 12:46:32;;;;;;;3.50;2.17;;;26.40;99.90;;;;;;5072150;28;20707;-63
2022/09/04 12:49:27;;;;;;;3.00;2.50;;;26.50;99.90;;;;;;5069765;28;20209;-62
2022/09/04 12:52:08;;;;;;;3.00;2.07;;;26.80;99.90;;;;;;5070884;28;20675;-64
2022/09/04 12:54:43;;;;;;;3.17;2.20;;;26.70;99.90;;;;;;5070431;28;20233;-63
2022/09/04 12:57:29;;;;;;;3.33;2.20;;;26.70;99.90;;;;;;5069838;28;20258;-65
2022/09/04 13:00:06;;;;;;;2.20;2.00;;;26.80;99.90;;;;;;5071289;28;20204;-64
2022/09/04 13:02:45;;;;;;;3.43;2.20;;;26.80;99.90;;;;;;5071948;28;20655;-65
2022/09/04 13:05:32;;;;;;;3.07;2.30;;;26.80;99.90;;;;;;5072411;28;20217;-63
2022/09/04 13:08:10;;;;;;;81.93;57.33;;;26.80;99.90;;;;;;5071626;28;20208;-63
2022/09/04 13:10:45;;;;;;;5.80;3.70;;;26.70;99.90;;;;;;5072326;28;20205;-64
2022/09/04 13:13:21;;;;;;;3.57;2.00;;;26.90;99.90;;;;;;5071867;28;20671;-64
2022/09/04 13:15:58;;;;;;;4.43;2.60;;;26.70;99.90;;;;;;5071643;28;20703;-63
2022/09/04 13:18:39;;;;;;;4.23;2.17;;;26.80;99.90;;;;;;5071976;28;20667;-62
2022/09/04 13:21:22;;;;;;;3.30;2.10;;;27.00;99.90;;;;;;5072386;28;20204;-63
2022/09/04 13:24:09;;;;;;;2.33;1.67;;;27.20;99.90;;;;;;5071514;28;20233;-64
2022/09/04 13:26:53;;;;;;;3.10;2.00;;;27.30;99.90;;;;;;5071857;28;20209;-64
2022/09/04 13:29:34;;;;;;;2.23;2.00;;;27.00;99.90;;;;;;5071971;28;20667;-64
2022/09/04 13:32:38;;;;;;;3.27;1.60;;;27.00;99.90;;;;;;5072112;28;20209;-65
2022/09/04 13:35:14;;;;;;;2.57;2.00;;;26.70;99.90;;;;;;4989592;28;20231;-66
2022/09/04 13:38:10;;;;;;;3.03;2.10;;;26.60;99.90;;;;;;4990081;28;20214;-66
2022/09/04 13:40:59;;;;;;;4.07;2.00;;;26.40;99.90;;;;;;5046447;28;20205;-66
2022/09/04 13:44:00;;;;;;;3.07;1.70;;;26.20;99.90;;;;;;5070778;28;20213;-64
2022/09/04 13:46:32;;;;;;;2.37;1.73;;;26.50;99.90;;;;;;5071256;28;20209;-65
2022/09/04 13:49:04;;;;;;;2.63;1.90;;;26.70;99.90;;;;;;5076004;28;20205;-65
2022/09/04 13:51:36;;;;;;;4.23;2.00;;;27.00;99.90;;;;;;5075637;28;20204;-64
2022/09/04 13:54:10;;;;;;;2.40;1.77;;;27.30;99.90;;;;;;5075306;28;20704;-64
2022/09/04 13:56:43;;;;;;;3.40;1.67;;;27.50;99.90;;;;;;5075008;28;20204;-64
2022/09/04 13:59:17;;;;;;;1.90;1.70;;;27.50;99.90;;;;;;5075660;28;20205;-62
2022/09/04 14:01:49;;;;;;;2.37;1.73;;;27.50;99.90;;;;;;5075206;28;20211;-62
2022/09/04 14:04:25;;;;;;;2.47;1.80;;;27.50;99.90;;;;;;5075015;28;20311;-63
2022/09/04 14:06:57;;;;;;;1.60;1.50;;;27.50;99.90;;;;;;5074816;28;20204;-64
2022/09/04 14:09:28;;;;;;;2.23;1.83;;;27.40;99.90;;;;;;5075500;28;20212;-64
2022/09/04 14:12:14;;;;;;;3.97;1.90;;;27.40;99.90;;;;;;5075575;28;20209;-64
2022/09/04 14:15:18;;;;;;;2.10;1.90;;;27.20;99.90;;;;;;5074439;28;20852;-63
2022/09/04 14:17:54;;;;;;;3.13;1.97;;;27.30;99.90;;;;;;5074687;28;20628;-64